sensor_id;sensor_type;location;lat;lon;timestamp;pressure;altitude;pressure_sealevel;temperature;humidity
40117;BME280;25829;50.228;18.936;2022-11-20T00:02:35;98289.53;;;-7.03;67.26
40117;BME280;25829;50.228;18.936;2022-11-20T00:05:36;98286.25;;;-7.06;67.14
40117;BME280;25829;50.228;18.936;2022-11-20T00:08:37;98292.19;;;-7.05;67.03
40117;BME280;25829;50.228;18.936;2022-11-20T00:11:38;98292.19;;;-7.05;67.07
40117;BME280;25829;50.228;18.936;2022-11-20T00:14:39;98280.19;;;-7.05;67.04
40117;BME280;25829;50.228;18.936;2022-11-20T00:17:41;98274.22;;;-7.05;66.88
40117;BME280;25829;50.228;18.936;2022-11-20T00:20:42;98272.81;;;-7.09;67.03
40117;BME280;25829;50.228;18.936;2022-11-20T00:23:46;98279.56;;;-7.08;67.05
40117;BME280;25829;50.228;18.936;2022-11-20T00:26:47;98283.88;;;-7.09;66.93
40117;BME280;25829;50.228;18.936;2022-11-20T00:29:48;98277.63;;;-7.17;66.53
40117;BME280;25829;50.228;18.936;2022-11-20T00:32:48;98274.31;;;-7.19;66.93
40117;BME280;25829;50.228;18.936;2022-11-20T00:35:49;98287.03;;;-7.18;67.24
40117;BME280;25829;50.228;18.936;2022-11-20T00:38:54;98281.63;;;-7.13;67.29
40117;BME280;25829;50.228;18.936;2022-11-20T00:42:02;98276.50;;;-7.13;67.21
40117;BME280;25829;50.228;18.936;2022-11-20T00:45:04;98280.81;;;-7.14;66.84
40117;BME280;25829;50.228;18.936;2022-11-20T00:48:05;98281.63;;;-7.13;66.89
40117;BME280;25829;50.228;18.936;2022-11-20T00:51:06;98278.31;;;-7.15;67.43
40117;BME280;25829;50.228;18.936;2022-11-20T00:54:07;98277.50;;;-7.16;67.14
40117;BME280;25829;50.228;18.936;2022-11-20T00:57:08;98270.63;;;-7.15;67.29
40117;BME280;25829;50.228;18.936;2022-11-20T01:00:09;98263.75;;;-7.15;66.81
40117;BME280;25829;50.228;18.936;2022-11-20T01:03:10;98258.75;;;-7.16;67.03
40117;BME280;25829;50.228;18.936;2022-11-20T01:06:13;98261.38;;;-7.18;67.33
40117;BME280;25829;50.228;18.936;2022-11-20T01:09:23;98260.38;;;-7.15;67.12
40117;BME280;25829;50.228;18.936;2022-11-20T01:12:24;98255.25;;;-7.15;67.32
40117;BME280;25829;50.228;18.936;2022-11-20T01:15:24;98263.97;;;-7.18;67.04
40117;BME280;25829;50.228;18.936;2022-11-20T01:18:25;98261.50;;;-7.19;67.03
40117;BME280;25829;50.228;18.936;2022-11-20T01:21:29;98258.00;;;-7.18;67.43
40117;BME280;25829;50.228;18.936;2022-11-20T01:24:30;98264.69;;;-7.16;67.41
40117;BME280;25829;50.228;18.936;2022-11-20T01:27:30;98249.31;;;-7.16;67.08
40117;BME280;25829;50.228;18.936;2022-11-20T01:30:35;98244.19;;;-7.16;67.04
40117;BME280;25829;50.228;18.936;2022-11-20T01:33:35;98241.72;;;-7.17;67.27
40117;BME280;25829;50.228;18.936;2022-11-20T01:36:37;98236.69;;;-7.19;67.09
40117;BME280;25829;50.228;18.936;2022-11-20T01:39:44;98229.41;;;-7.25;66.79
40117;BME280;25829;50.228;18.936;2022-11-20T01:42:47;98232.69;;;-7.23;66.69
40117;BME280;25829;50.228;18.936;2022-11-20T01:46:15;98223.56;;;-7.27;66.80
40117;BME280;25829;50.228;18.936;2022-11-20T01:49:31;98220.06;;;-7.26;67.11
40117;BME280;25829;50.228;18.936;2022-11-20T01:52:50;98215.75;;;-7.25;67.09
40117;BME280;25829;50.228;18.936;2022-11-20T01:55:56;98212.31;;;-7.24;67.16
40117;BME280;25829;50.228;18.936;2022-11-20T01:59:01;98224.19;;;-7.23;67.07
40117;BME280;25829;50.228;18.936;2022-11-20T02:02:03;98219.34;;;-7.28;66.98
40117;BME280;25829;50.228;18.936;2022-11-20T02:05:14;98232.16;;;-7.28;67.14
40117;BME280;25829;50.228;18.936;2022-11-20T02:08:18;98232.16;;;-7.28;67.28
40117;BME280;25829;50.228;18.936;2022-11-20T02:11:20;98232.28;;;-7.30;67.11
40117;BME280;25829;50.228;18.936;2022-11-20T02:14:22;98233.00;;;-7.28;67.14
40117;BME280;25829;50.228;18.936;2022-11-20T02:17:24;98238.22;;;-7.29;66.95
40117;BME280;25829;50.228;18.936;2022-11-20T02:20:25;98241.72;;;-7.30;66.95
40117;BME280;25829;50.228;18.936;2022-11-20T02:27:11;98248.84;;;-7.35;67.10
40117;BME280;25829;50.228;18.936;2022-11-20T02:30:15;98264.34;;;-7.37;67.24
40117;BME280;25829;50.228;18.936;2022-11-20T02:33:16;98260.84;;;-7.36;67.45
40117;BME280;25829;50.228;18.936;2022-11-20T02:36:17;98262.59;;;-7.36;67.58
40117;BME280;25829;50.228;18.936;2022-11-20T02:39:19;98262.28;;;-7.32;67.76
40117;BME280;25829;50.228;18.936;2022-11-20T02:42:21;98262.22;;;-7.30;67.51
40117;BME280;25829;50.228;18.936;2022-11-20T02:45:23;98261.28;;;-7.29;67.32
40117;BME280;25829;50.228;18.936;2022-11-20T02:48:26;98262.28;;;-7.32;67.43
40117;BME280;25829;50.228;18.936;2022-11-20T02:51:27;98256.53;;;-7.35;67.38
40117;BME280;25829;50.228;18.936;2022-11-20T02:54:31;98259.03;;;-7.34;67.31
40117;BME280;25829;50.228;18.936;2022-11-20T02:57:31;98253.09;;;-7.34;67.38
40117;BME280;25829;50.228;18.936;2022-11-20T03:00:32;98260.56;;;-7.31;66.98
40117;BME280;25829;50.228;18.936;2022-11-20T03:03:34;98251.97;;;-7.30;67.10
40117;BME280;25829;50.228;18.936;2022-11-20T03:06:35;98249.47;;;-7.32;66.90
40117;BME280;25829;50.228;18.936;2022-11-20T03:09:35;98247.53;;;-7.41;66.65
40117;BME280;25829;50.228;18.936;2022-11-20T03:12:36;98246.38;;;-7.49;66.43
40117;BME280;25829;50.228;18.936;2022-11-20T03:15:37;98251.50;;;-7.62;66.62
40117;BME280;25829;50.228;18.936;2022-11-20T03:18:39;98251.75;;;-7.67;67.27
40117;BME280;25829;50.228;18.936;2022-11-20T03:21:40;98252.31;;;-7.62;67.41
40117;BME280;25829;50.228;18.936;2022-11-20T03:24:40;98255.38;;;-7.57;67.72
40117;BME280;25829;50.228;18.936;2022-11-20T03:27:41;98255.91;;;-7.52;67.93
40117;BME280;25829;50.228;18.936;2022-11-20T03:30:42;98258.06;;;-7.45;67.72
40117;BME280;25829;50.228;18.936;2022-11-20T03:33:43;98251.09;;;-7.43;67.70
40117;BME280;25829;50.228;18.936;2022-11-20T03:36:44;98246.81;;;-7.43;67.39
40117;BME280;25829;50.228;18.936;2022-11-20T03:39:45;98247.94;;;-7.47;67.12
40117;BME280;25829;50.228;18.936;2022-11-20T03:42:45;98252.13;;;-7.46;67.18
40117;BME280;25829;50.228;18.936;2022-11-20T03:45:46;98257.16;;;-7.44;67.34
40117;BME280;25829;50.228;18.936;2022-11-20T03:48:47;98258.91;;;-7.45;67.47
40117;BME280;25829;50.228;18.936;2022-11-20T03:51:48;98257.25;;;-7.46;67.10
40117;BME280;25829;50.228;18.936;2022-11-20T03:54:49;98255.72;;;-7.48;67.09
40117;BME280;25829;50.228;18.936;2022-11-20T03:57:50;98253.25;;;-7.50;67.21
40117;BME280;25829;50.228;18.936;2022-11-20T04:00:50;98255.91;;;-7.52;67.21
40117;BME280;25829;50.228;18.936;2022-11-20T04:03:53;98255.09;;;-7.52;67.07
40117;BME280;25829;50.228;18.936;2022-11-20T04:06:54;98249.88;;;-7.50;67.33
40117;BME280;25829;50.228;18.936;2022-11-20T04:09:55;98247.19;;;-7.49;67.15
40117;BME280;25829;50.228;18.936;2022-11-20T04:12:55;98243.81;;;-7.49;67.40
40117;BME280;25829;50.228;18.936;2022-11-20T04:15:57;98245.38;;;-7.47;67.24
40117;BME280;25829;50.228;18.936;2022-11-20T04:19:00;98240.63;;;-7.53;66.73
40117;BME280;25829;50.228;18.936;2022-11-20T04:22:01;98233.22;;;-7.70;66.37
40117;BME280;25829;50.228;18.936;2022-11-20T04:25:02;98239.41;;;-7.87;66.87
40117;BME280;25829;50.228;18.936;2022-11-20T04:28:10;98228.94;;;-7.97;66.99
40117;BME280;25829;50.228;18.936;2022-11-20T04:31:16;98232.31;;;-7.96;67.32
40117;BME280;25829;50.228;18.936;2022-11-20T04:34:17;98224.63;;;-7.96;67.44
40117;BME280;25829;50.228;18.936;2022-11-20T04:37:18;98226.59;;;-7.87;67.90
40117;BME280;25829;50.228;18.936;2022-11-20T04:40:19;98228.16;;;-7.85;67.89
40117;BME280;25829;50.228;18.936;2022-11-20T04:43:19;98219.34;;;-7.81;67.53
40117;BME280;25829;50.228;18.936;2022-11-20T04:50:16;98208.72;;;-7.74;67.33
40117;BME280;25829;50.228;18.936;2022-11-20T04:53:18;98214.56;;;-7.72;67.15
40117;BME280;25829;50.228;18.936;2022-11-20T04:56:18;98207.91;;;-7.75;67.12
40117;BME280;25829;50.228;18.936;2022-11-20T04:59:19;98206.97;;;-7.74;67.26
40117;BME280;25829;50.228;18.936;2022-11-20T05:02:20;98201.03;;;-7.74;67.02
40117;BME280;25829;50.228;18.936;2022-11-20T05:05:21;98189.88;;;-7.73;66.99
40117;BME280;25829;50.228;18.936;2022-11-20T05:08:22;98188.34;;;-7.76;66.97
40117;BME280;25829;50.228;18.936;2022-11-20T05:11:23;98191.72;;;-7.76;67.09
40117;BME280;25829;50.228;18.936;2022-11-20T05:14:24;98191.59;;;-7.74;67.10
40117;BME280;25829;50.228;18.936;2022-11-20T05:17:25;98188.34;;;-7.76;66.89
40117;BME280;25829;50.228;18.936;2022-11-20T05:20:26;98196.66;;;-7.72;67.25
40117;BME280;25829;50.228;18.936;2022-11-20T05:23:27;98185.47;;;-7.71;67.50
40117;BME280;25829;50.228;18.936;2022-11-20T05:26:29;98185.59;;;-7.73;67.14
40117;BME280;25829;50.228;18.936;2022-11-20T05:29:30;98186.59;;;-7.76;66.79
40117;BME280;25829;50.228;18.936;2022-11-20T05:32:31;98186.59;;;-7.76;66.79
40117;BME280;25829;50.228;18.936;2022-11-20T05:35:31;98179.81;;;-7.77;66.69
40117;BME280;25829;50.228;18.936;2022-11-20T05:38:32;98174.91;;;-7.80;66.89
40117;BME280;25829;50.228;18.936;2022-11-20T05:41:39;98180.03;;;-7.80;66.63
40117;BME280;25829;50.228;18.936;2022-11-20T05:44:40;98176.13;;;-7.85;66.12
40117;BME280;25829;50.228;18.936;2022-11-20T05:47:41;98172.41;;;-7.94;66.01
40117;BME280;25829;50.228;18.936;2022-11-20T05:50:42;98174.25;;;-7.96;66.52
40117;BME280;25829;50.228;18.936;2022-11-20T05:53:43;98173.44;;;-7.96;66.26
40117;BME280;25829;50.228;18.936;2022-11-20T05:56:44;98172.19;;;-8.04;66.01
40117;BME280;25829;50.228;18.936;2022-11-20T05:59:45;98175.03;;;-8.08;66.55
40117;BME280;25829;50.228;18.936;2022-11-20T06:02:45;98174.84;;;-8.05;66.34
40117;BME280;25829;50.228;18.936;2022-11-20T06:05:52;98175.66;;;-8.05;66.31
40117;BME280;25829;50.228;18.936;2022-11-20T06:08:56;98172.03;;;-8.15;66.34
40117;BME280;25829;50.228;18.936;2022-11-20T06:11:59;98174.88;;;-8.19;66.26
40117;BME280;25829;50.228;18.936;2022-11-20T06:15:00;98182.75;;;-8.23;66.15
40117;BME280;25829;50.228;18.936;2022-11-20T06:18:01;98182.22;;;-8.28;66.78
40117;BME280;25829;50.228;18.936;2022-11-20T06:21:07;98180.94;;;-8.20;67.10
40117;BME280;25829;50.228;18.936;2022-11-20T06:24:11;98186.28;;;-8.11;67.18
40117;BME280;25829;50.228;18.936;2022-11-20T06:27:12;98185.19;;;-8.07;67.18
40117;BME280;25829;50.228;18.936;2022-11-20T06:30:13;98185.81;;;-8.03;66.94
40117;BME280;25829;50.228;18.936;2022-11-20T06:33:13;98189.91;;;-8.01;66.65
40117;BME280;25829;50.228;18.936;2022-11-20T06:36:15;98182.25;;;-8.01;66.72
40117;BME280;25829;50.228;18.936;2022-11-20T06:39:17;98182.25;;;-8.01;66.57
40117;BME280;25829;50.228;18.936;2022-11-20T06:42:18;98172.00;;;-8.01;66.58
40117;BME280;25829;50.228;18.936;2022-11-20T06:45:18;98170.34;;;-8.02;66.74
40117;BME280;25829;50.228;18.936;2022-11-20T06:48:19;98165.91;;;-8.12;66.33
40117;BME280;25829;50.228;18.936;2022-11-20T06:51:20;98161.66;;;-8.26;66.67
40117;BME280;25829;50.228;18.936;2022-11-20T06:54:21;98156.91;;;-8.32;67.29
40117;BME280;25829;50.228;18.936;2022-11-20T06:57:22;98160.94;;;-8.28;67.39
40117;BME280;25829;50.228;18.936;2022-11-20T07:00:23;98160.03;;;-8.27;67.54
40117;BME280;25829;50.228;18.936;2022-11-20T07:03:24;98152.16;;;-8.24;68.03
40117;BME280;25829;50.228;18.936;2022-11-20T07:06:25;98157.59;;;-8.16;68.21
40117;BME280;25829;50.228;18.936;2022-11-20T07:09:26;98149.66;;;-7.98;68.49
40117;BME280;25829;50.228;18.936;2022-11-20T07:12:27;98138.44;;;-7.83;68.43
40117;BME280;25829;50.228;18.936;2022-11-20T07:15:35;98143.28;;;-7.66;68.31
40117;BME280;25829;50.228;18.936;2022-11-20T07:18:36;98156.09;;;-7.53;67.99
40117;BME280;25829;50.228;18.936;2022-11-20T07:21:37;98135.00;;;-7.44;67.80
40117;BME280;25829;50.228;18.936;2022-11-20T07:24:43;98148.41;;;-7.40;67.92
40117;BME280;25829;50.228;18.936;2022-11-20T07:27:44;98150.25;;;-7.30;68.54
40117;BME280;25829;50.228;18.936;2022-11-20T07:34:37;98149.81;;;-7.11;68.11
40117;BME280;25829;50.228;18.936;2022-11-20T07:37:41;98146.44;;;-7.11;68.94
40117;BME280;25829;50.228;18.936;2022-11-20T07:40:42;98143.38;;;-7.03;69.38
40117;BME280;25829;50.228;18.936;2022-11-20T07:43:42;98146.63;;;-6.89;69.21
40117;BME280;25829;50.228;18.936;2022-11-20T07:46:43;98143.41;;;-6.80;69.74
40117;BME280;25829;50.228;18.936;2022-11-20T07:49:47;98137.13;;;-6.63;69.72
40117;BME280;25829;50.228;18.936;2022-11-20T07:52:48;98151.94;;;-6.42;70.05
40117;BME280;25829;50.228;18.936;2022-11-20T07:55:55;98141.91;;;-6.21;70.33
40117;BME280;25829;50.228;18.936;2022-11-20T07:59:13;98146.44;;;-6.01;70.80
40117;BME280;25829;50.228;18.936;2022-11-20T08:06:22;98158.13;;;-5.62;71.88
40117;BME280;25829;50.228;18.936;2022-11-20T08:09:57;98157.59;;;-5.43;71.53
40117;BME280;25829;50.228;18.936;2022-11-20T08:13:01;98150.59;;;-5.29;71.92
40117;BME280;25829;50.228;18.936;2022-11-20T08:16:20;98158.09;;;-5.15;71.85
40117;BME280;25829;50.228;18.936;2022-11-20T08:19:22;98162.06;;;-5.11;71.54
40117;BME280;25829;50.228;18.936;2022-11-20T08:22:22;98158.44;;;-5.08;71.76
40117;BME280;25829;50.228;18.936;2022-11-20T08:25:34;98166.28;;;-4.99;71.60
40117;BME280;25829;50.228;18.936;2022-11-20T08:28:38;98165.69;;;-4.91;71.52
40117;BME280;25829;50.228;18.936;2022-11-20T08:31:44;98162.31;;;-4.80;71.77
40117;BME280;25829;50.228;18.936;2022-11-20T08:34:45;98167.56;;;-4.71;71.42
40117;BME280;25829;50.228;18.936;2022-11-20T08:37:55;98166.25;;;-4.65;71.47
40117;BME280;25829;50.228;18.936;2022-11-20T08:41:00;98168.38;;;-4.59;71.69
40117;BME280;25829;50.228;18.936;2022-11-20T08:44:23;98168.25;;;-4.46;71.83
40117;BME280;25829;50.228;18.936;2022-11-20T08:47:23;98171.84;;;-4.37;72.13
40117;BME280;25829;50.228;18.936;2022-11-20T09:08:04;98164.53;;;-3.78;71.21
40117;BME280;25829;50.228;18.936;2022-11-20T09:11:07;98151.00;;;-3.70;71.54
40117;BME280;25829;50.228;18.936;2022-11-20T09:14:08;98154.47;;;-3.60;71.10
40117;BME280;25829;50.228;18.936;2022-11-20T09:17:38;98154.00;;;-3.44;71.24
40117;BME280;25829;50.228;18.936;2022-11-20T09:20:50;98161.63;;;-3.22;71.00
40117;BME280;25829;50.228;18.936;2022-11-20T09:23:51;98158.16;;;-3.11;70.70
40117;BME280;25829;50.228;18.936;2022-11-20T09:26:58;98156.53;;;-3.02;70.40
40117;BME280;25829;50.228;18.936;2022-11-20T09:30:07;98152.91;;;-3.00;70.47
40117;BME280;25829;50.228;18.936;2022-11-20T09:33:08;98153.19;;;-2.93;70.50
40117;BME280;25829;50.228;18.936;2022-11-20T09:36:08;98147.38;;;-2.85;70.18
40117;BME280;25829;50.228;18.936;2022-11-20T09:39:09;98148.78;;;-2.81;70.28
40117;BME280;25829;50.228;18.936;2022-11-20T09:45:44;98149.50;;;-2.69;70.04
40117;BME280;25829;50.228;18.936;2022-11-20T09:52:22;98119.66;;;-2.43;70.09
40117;BME280;25829;50.228;18.936;2022-11-20T09:55:30;98115.03;;;-2.30;69.82
40117;BME280;25829;50.228;18.936;2022-11-20T09:58:38;98110.28;;;-2.05;69.67
40117;BME280;25829;50.228;18.936;2022-11-20T10:01:40;98109.59;;;-1.68;67.98
40117;BME280;25829;50.228;18.936;2022-11-20T10:05:20;98117.19;;;-1.57;67.04
40117;BME280;25829;50.228;18.936;2022-11-20T10:08:27;98126.06;;;-1.60;67.09
40117;BME280;25829;50.228;18.936;2022-11-20T10:15:10;98116.28;;;-1.85;66.44
40117;BME280;25829;50.228;18.936;2022-11-20T10:24:56;98096.69;;;-1.97;67.60
40117;BME280;25829;50.228;18.936;2022-11-20T10:28:25;98095.06;;;-1.89;68.34
40117;BME280;25829;50.228;18.936;2022-11-20T10:31:36;98090.94;;;-1.72;68.23
40117;BME280;25829;50.228;18.936;2022-11-20T10:34:50;98097.88;;;-1.63;67.77
40117;BME280;25829;50.228;18.936;2022-11-20T10:37:59;98095.44;;;-1.64;67.56
40117;BME280;25829;50.228;18.936;2022-11-20T10:41:02;98079.63;;;-1.61;67.62
40117;BME280;25829;50.228;18.936;2022-11-20T10:44:28;98083.03;;;-1.61;67.98
40117;BME280;25829;50.228;18.936;2022-11-20T10:47:48;98076.63;;;-1.57;67.48
40117;BME280;25829;50.228;18.936;2022-11-20T10:51:10;98064.25;;;-1.53;67.73
40117;BME280;25829;50.228;18.936;2022-11-20T10:58:12;98056.34;;;-1.61;66.92
40117;BME280;25829;50.228;18.936;2022-11-20T11:01:40;98061.00;;;-1.65;66.86
40117;BME280;25829;50.228;18.936;2022-11-20T11:04:47;98050.22;;;-1.60;67.67
40117;BME280;25829;50.228;18.936;2022-11-20T11:07:58;98048.56;;;-1.51;67.67
40117;BME280;25829;50.228;18.936;2022-11-20T11:11:27;98064.19;;;-1.43;67.91
40117;BME280;25829;50.228;18.936;2022-11-20T11:14:44;98057.38;;;-1.35;68.22
40117;BME280;25829;50.228;18.936;2022-11-20T11:17:47;98062.13;;;-1.30;67.79
40117;BME280;25829;50.228;18.936;2022-11-20T11:20:55;98057.50;;;-1.36;68.20
40117;BME280;25829;50.228;18.936;2022-11-20T11:24:01;98056.16;;;-1.40;68.10
40117;BME280;25829;50.228;18.936;2022-11-20T11:27:10;98053.00;;;-1.34;68.15
40117;BME280;25829;50.228;18.936;2022-11-20T11:30:18;98054.50;;;-1.32;68.13
40117;BME280;25829;50.228;18.936;2022-11-20T11:36:23;98067.63;;;-1.15;68.67
40117;BME280;25829;50.228;18.936;2022-11-20T11:39:27;98063.50;;;-1.08;68.20
40117;BME280;25829;50.228;18.936;2022-11-20T11:42:29;98065.41;;;-1.00;67.44
40117;BME280;25829;50.228;18.936;2022-11-20T11:45:30;98056.22;;;-0.95;67.14
40117;BME280;25829;50.228;18.936;2022-11-20T11:48:31;98043.44;;;-0.96;66.84
40117;BME280;25829;50.228;18.936;2022-11-20T11:51:36;98035.69;;;-0.96;67.49
40117;BME280;25829;50.228;18.936;2022-11-20T11:54:51;98032.28;;;-0.97;66.80
40117;BME280;25829;50.228;18.936;2022-11-20T12:01:26;98029.53;;;-0.95;66.72
40117;BME280;25829;50.228;18.936;2022-11-20T12:11:58;98028.94;;;-0.89;67.22
40117;BME280;25829;50.228;18.936;2022-11-20T12:15:04;98020.31;;;-0.80;67.60
40117;BME280;25829;50.228;18.936;2022-11-20T12:18:15;98021.44;;;-0.65;67.45
40117;BME280;25829;50.228;18.936;2022-11-20T12:24:35;98007.84;;;-0.49;66.96
40117;BME280;25829;50.228;18.936;2022-11-20T12:38:40;97982.34;;;-0.53;67.01
40117;BME280;25829;50.228;18.936;2022-11-20T12:49:16;97962.00;;;-0.48;67.31
40117;BME280;25829;50.228;18.936;2022-11-20T12:56:29;97954.22;;;-0.48;67.79
40117;BME280;25829;50.228;18.936;2022-11-20T13:07:10;97952.44;;;-0.48;68.13
40117;BME280;25829;50.228;18.936;2022-11-20T13:16:59;97948.22;;;-0.67;68.25
40117;BME280;25829;50.228;18.936;2022-11-20T13:20:03;97941.59;;;-0.69;68.64
40117;BME280;25829;50.228;18.936;2022-11-20T13:23:06;97941.44;;;-0.68;68.83
40117;BME280;25829;50.228;18.936;2022-11-20T13:29:19;97943.50;;;-0.71;68.45
40117;BME280;25829;50.228;18.936;2022-11-20T13:32:21;97936.03;;;-0.74;68.66
40117;BME280;25829;50.228;18.936;2022-11-20T13:38:26;97940.84;;;-0.79;69.09
40117;BME280;25829;50.228;18.936;2022-11-20T13:44:38;97932.28;;;-0.80;69.09
40117;BME280;25829;50.228;18.936;2022-11-20T13:47:47;97924.63;;;-0.81;69.04
40117;BME280;25829;50.228;18.936;2022-11-20T13:54:26;97916.88;;;-0.81;69.08
40117;BME280;25829;50.228;18.936;2022-11-20T14:01:23;97914.72;;;-0.86;69.51
40117;BME280;25829;50.228;18.936;2022-11-20T14:04:38;97910.06;;;-0.83;69.37
40117;BME280;25829;50.228;18.936;2022-11-20T14:07:43;97916.41;;;-0.77;69.64
40117;BME280;25829;50.228;18.936;2022-11-20T14:10:44;97917.59;;;-0.71;68.98
40117;BME280;25829;50.228;18.936;2022-11-20T14:14:18;97919.09;;;-0.69;68.94
40117;BME280;25829;50.228;18.936;2022-11-20T14:20:29;97920.06;;;-0.70;68.82
40117;BME280;25829;50.228;18.936;2022-11-20T14:23:31;97913.53;;;-0.74;69.16
40117;BME280;25829;50.228;18.936;2022-11-20T14:26:32;97912.59;;;-0.73;68.92
40117;BME280;25829;50.228;18.936;2022-11-20T14:29:38;97917.31;;;-0.68;69.33
40117;BME280;25829;50.228;18.936;2022-11-20T14:32:39;97896.94;;;-0.63;69.12
40117;BME280;25829;50.228;18.936;2022-11-20T14:35:54;97899.53;;;-0.63;69.24
40117;BME280;25829;50.228;18.936;2022-11-20T14:38:55;97909.25;;;-0.65;69.11
40117;BME280;25829;50.228;18.936;2022-11-20T14:41:56;97908.56;;;-0.67;69.26
40117;BME280;25829;50.228;18.936;2022-11-20T14:44:59;97910.50;;;-0.69;69.39
40117;BME280;25829;50.228;18.936;2022-11-20T14:48:00;97910.00;;;-0.73;69.04
40117;BME280;25829;50.228;18.936;2022-11-20T14:51:10;97910.28;;;-0.76;69.38
40117;BME280;25829;50.228;18.936;2022-11-20T14:54:16;97895.50;;;-0.84;69.40
40117;BME280;25829;50.228;18.936;2022-11-20T14:57:35;97893.34;;;-0.88;69.66
40117;BME280;25829;50.228;18.936;2022-11-20T15:00:35;97886.53;;;-0.89;69.75
40117;BME280;25829;50.228;18.936;2022-11-20T15:03:40;97897.41;;;-0.86;69.82
40117;BME280;25829;50.228;18.936;2022-11-20T15:06:50;97890.44;;;-0.85;69.66
40117;BME280;25829;50.228;18.936;2022-11-20T15:10:06;97888.38;;;-0.81;69.61
40117;BME280;25829;50.228;18.936;2022-11-20T15:13:13;97886.59;;;-0.81;69.67
40117;BME280;25829;50.228;18.936;2022-11-20T15:16:21;97893.09;;;-0.77;69.82
40117;BME280;25829;50.228;18.936;2022-11-20T15:19:25;97880.59;;;-0.81;69.99
40117;BME280;25829;50.228;18.936;2022-11-20T15:22:26;97876.97;;;-0.89;70.20
40117;BME280;25829;50.228;18.936;2022-11-20T15:25:27;97876.63;;;-0.94;70.31
40117;BME280;25829;50.228;18.936;2022-11-20T15:28:51;97882.47;;;-0.92;70.49
40117;BME280;25829;50.228;18.936;2022-11-20T15:31:52;97887.22;;;-0.87;70.51
40117;BME280;25829;50.228;18.936;2022-11-20T15:34:54;97882.97;;;-0.88;70.70
40117;BME280;25829;50.228;18.936;2022-11-20T15:37:55;97884.97;;;-0.82;70.75
40117;BME280;25829;50.228;18.936;2022-11-20T15:40:56;97877.22;;;-0.82;70.62
40117;BME280;25829;50.228;18.936;2022-11-20T15:43:57;97884.00;;;-0.81;70.81
40117;BME280;25829;50.228;18.936;2022-11-20T15:46:58;97878.19;;;-0.83;70.87
40117;BME280;25829;50.228;18.936;2022-11-20T15:49:59;97871.50;;;-0.86;70.76
40117;BME280;25829;50.228;18.936;2022-11-20T15:52:59;97875.44;;;-0.81;71.19
40117;BME280;25829;50.228;18.936;2022-11-20T15:56:01;97876.63;;;-0.76;71.00
40117;BME280;25829;50.228;18.936;2022-11-20T15:59:05;97873.28;;;-0.68;70.48
40117;BME280;25829;50.228;18.936;2022-11-20T16:02:13;97866.31;;;-0.68;70.83
40117;BME280;25829;50.228;18.936;2022-11-20T16:05:14;97869.69;;;-0.67;71.03
40117;BME280;25829;50.228;18.936;2022-11-20T16:08:15;97866.97;;;-0.66;70.80
40117;BME280;25829;50.228;18.936;2022-11-20T16:11:17;97865.84;;;-0.63;70.63
40117;BME280;25829;50.228;18.936;2022-11-20T16:14:18;97865.25;;;-0.57;71.17
40117;BME280;25829;50.228;18.936;2022-11-20T16:17:41;97864.31;;;-0.56;70.85
40117;BME280;25829;50.228;18.936;2022-11-20T16:20:46;97869.31;;;-0.54;71.08
40117;BME280;25829;50.228;18.936;2022-11-20T16:23:47;97866.56;;;-0.53;71.35
40117;BME280;25829;50.228;18.936;2022-11-20T16:26:59;97874.84;;;-0.49;71.25
40117;BME280;25829;50.228;18.936;2022-11-20T16:30:18;97874.75;;;-0.40;71.22
40117;BME280;25829;50.228;18.936;2022-11-20T16:33:18;97869.47;;;-0.30;71.51
40117;BME280;25829;50.228;18.936;2022-11-20T16:36:21;97869.50;;;-0.22;71.17
40117;BME280;25829;50.228;18.936;2022-11-20T16:39:28;97858.41;;;-0.14;70.84
40117;BME280;25829;50.228;18.936;2022-11-20T16:42:37;97856.66;;;-0.05;70.83
40117;BME280;25829;50.228;18.936;2022-11-20T16:45:43;97861.88;;;0.03;70.66
40117;BME280;25829;50.228;18.936;2022-11-20T16:49:26;97863.84;;;0.09;70.58
40117;BME280;25829;50.228;18.936;2022-11-20T16:52:30;97855.13;;;0.10;70.54
40117;BME280;25829;50.228;18.936;2022-11-20T17:02:40;97871.13;;;0.05;70.08
40117;BME280;25829;50.228;18.936;2022-11-20T17:05:41;97865.41;;;-0.06;70.48
40117;BME280;25829;50.228;18.936;2022-11-20T17:08:55;97878.84;;;-0.11;70.61
40117;BME280;25829;50.228;18.936;2022-11-20T17:12:21;97869.72;;;-0.15;70.21
40117;BME280;25829;50.228;18.936;2022-11-20T17:19:24;97874.16;;;-0.33;70.68
40117;BME280;25829;50.228;18.936;2022-11-20T17:22:45;97866.47;;;-0.43;71.19
40117;BME280;25829;50.228;18.936;2022-11-20T17:25:46;97855.91;;;-0.50;71.75
40117;BME280;25829;50.228;18.936;2022-11-20T17:32:05;97851.66;;;-0.59;72.23
40117;BME280;25829;50.228;18.936;2022-11-20T17:35:06;97847.56;;;-0.62;72.16
40117;BME280;25829;50.228;18.936;2022-11-20T17:38:07;97858.06;;;-0.63;72.04
40117;BME280;25829;50.228;18.936;2022-11-20T17:44:11;97833.91;;;-0.72;72.81
40117;BME280;25829;50.228;18.936;2022-11-20T17:50:59;97819.78;;;-0.77;72.66
40117;BME280;25829;50.228;18.936;2022-11-20T17:54:40;97830.13;;;-0.77;73.01
40117;BME280;25829;50.228;18.936;2022-11-20T17:57:41;97828.34;;;-0.77;73.48
40117;BME280;25829;50.228;18.936;2022-11-20T18:01:03;97815.56;;;-0.78;73.26
40117;BME280;25829;50.228;18.936;2022-11-20T18:04:05;97804.69;;;-0.82;73.26
40117;BME280;25829;50.228;18.936;2022-11-20T18:07:06;97804.34;;;-0.87;73.80
40117;BME280;25829;50.228;18.936;2022-11-20T18:10:07;97805.16;;;-0.87;73.27
40117;BME280;25829;50.228;18.936;2022-11-20T18:13:08;97820.69;;;-0.87;73.25
40117;BME280;25829;50.228;18.936;2022-11-20T18:16:09;97812.94;;;-0.87;73.84
40117;BME280;25829;50.228;18.936;2022-11-20T18:19:11;97830.88;;;-0.85;73.47
40117;BME280;25829;50.228;18.936;2022-11-20T18:22:14;97826.22;;;-0.81;73.44
40117;BME280;25829;50.228;18.936;2022-11-20T18:25:15;97821.22;;;-0.83;73.88
40117;BME280;25829;50.228;18.936;2022-11-20T18:28:15;97827.84;;;-0.80;74.01
40117;BME280;25829;50.228;18.936;2022-11-20T18:31:19;97821.72;;;-0.79;73.48
40117;BME280;25829;50.228;18.936;2022-11-20T18:34:23;97824.94;;;-0.77;73.39
40117;BME280;25829;50.228;18.936;2022-11-20T18:37:24;97819.78;;;-0.77;73.35